createdAt,value
2022-08-30T00:00:43.023Z,997.62
2022-08-30T00:01:43.013Z,997.58
2022-08-30T00:02:43.043Z,997.59
2022-08-30T00:03:43.063Z,997.59
2022-08-30T00:04:42.930Z,997.56
2022-08-30T00:05:42.902Z,997.56
2022-08-30T00:06:42.897Z,997.55
2022-08-30T00:07:42.859Z,997.58
2022-08-30T00:08:42.835Z,997.58
2022-08-30T00:09:42.830Z,997.56
2022-08-30T00:10:42.796Z,997.60
2022-08-30T00:11:42.776Z,997.64
2022-08-30T00:12:42.753Z,997.62
2022-08-30T00:13:42.735Z,997.65
2022-08-30T00:14:42.709Z,997.66
2022-08-30T00:15:42.709Z,997.65
2022-08-30T00:16:42.661Z,997.69
2022-08-30T00:17:42.643Z,997.65
2022-08-30T00:18:42.633Z,997.66
2022-08-30T00:19:42.597Z,997.61
2022-08-30T00:20:42.606Z,997.63
2022-08-30T00:21:42.554Z,997.61
2022-08-30T00:22:42.527Z,997.60
2022-08-30T00:23:42.513Z,997.63
2022-08-30T00:24:42.487Z,997.59
2022-08-30T00:25:42.469Z,997.63
2022-08-30T00:26:42.447Z,997.60
2022-08-30T00:27:42.422Z,997.59
2022-08-30T00:28:42.396Z,997.62
2022-08-30T00:29:42.381Z,997.59
2022-08-30T00:30:42.404Z,997.56
2022-08-30T00:31:42.333Z,997.56
2022-08-30T00:32:42.311Z,997.54
2022-08-30T00:33:42.290Z,997.51
2022-08-30T00:34:42.268Z,997.54
2022-08-30T00:35:42.240Z,997.52
2022-08-30T00:36:42.227Z,997.53
2022-08-30T00:37:42.222Z,997.57
2022-08-30T00:38:42.178Z,997.57
2022-08-30T00:39:42.155Z,997.57
2022-08-30T00:40:42.235Z,997.57
2022-08-30T00:41:42.117Z,997.56
2022-08-30T00:42:42.092Z,997.55
2022-08-30T00:43:42.088Z,997.53
2022-08-30T00:44:42.058Z,997.56
2022-08-30T00:45:42.039Z,997.53
2022-08-30T00:46:42.153Z,997.50
2022-08-30T00:47:42.089Z,997.52
2022-08-30T00:48:41.970Z,997.50
2022-08-30T00:49:41.942Z,997.48
2022-08-30T00:50:41.916Z,997.49
2022-08-30T00:51:41.919Z,997.54
2022-08-30T00:52:41.870Z,997.55
2022-08-30T00:53:41.844Z,997.56
2022-08-30T00:54:41.823Z,997.59
2022-08-30T00:55:42.068Z,997.59
2022-08-30T00:56:41.782Z,997.59
2022-08-30T00:57:41.772Z,997.60
2022-08-30T00:58:41.735Z,997.62
2022-08-30T00:59:41.713Z,997.63
2022-08-30T01:00:41.690Z,997.62
2022-08-30T01:01:41.696Z,997.65
2022-08-30T01:02:41.674Z,997.66
2022-08-30T01:03:41.643Z,997.67
2022-08-30T01:04:41.619Z,997.69
2022-08-30T01:05:41.578Z,997.71
2022-08-30T01:06:41.566Z,997.68
2022-08-30T01:07:41.548Z,997.69
2022-08-30T01:08:41.515Z,997.69
2022-08-30T01:09:41.493Z,997.69
2022-08-30T01:10:41.474Z,997.70
2022-08-30T01:11:41.458Z,997.70
2022-08-30T01:12:41.425Z,997.68
2022-08-30T01:13:41.405Z,997.72
2022-08-30T01:14:41.383Z,997.67
2022-08-30T01:15:41.405Z,997.69
2022-08-30T01:16:41.336Z,997.68
2022-08-30T01:17:41.324Z,997.68
2022-08-30T01:18:41.296Z,997.73
2022-08-30T01:19:41.278Z,997.72
2022-08-30T01:20:41.248Z,997.69
2022-08-30T01:21:41.243Z,997.72
2022-08-30T01:22:41.209Z,997.72
2022-08-30T01:23:41.179Z,997.74
2022-08-30T01:24:41.157Z,997.70
2022-08-30T01:25:41.135Z,997.68
2022-08-30T01:26:41.114Z,997.67
2022-08-30T01:27:41.104Z,997.64
2022-08-30T01:28:41.064Z,997.66
2022-08-30T01:29:41.054Z,997.66
2022-08-30T01:30:41.063Z,997.68
2022-08-30T01:31:41.004Z,997.70
2022-08-30T01:32:40.981Z,997.70
2022-08-30T01:33:40.954Z,997.69
2022-08-30T01:34:40.935Z,997.69
2022-08-30T01:35:40.909Z,997.72
2022-08-30T01:36:44.933Z,997.72
2022-08-30T01:37:40.867Z,997.70
2022-08-30T01:38:40.855Z,997.66
2022-08-30T01:39:40.822Z,997.67
2022-08-30T01:40:40.866Z,997.69
2022-08-30T01:41:40.777Z,997.67
2022-08-30T01:42:40.779Z,997.66
2022-08-30T01:43:40.770Z,997.64
2022-08-30T01:44:40.723Z,997.64
2022-08-30T01:45:40.747Z,997.65
2022-08-30T01:46:40.680Z,997.64
2022-08-30T01:47:40.684Z,997.64
2022-08-30T01:48:40.701Z,997.64
2022-08-30T01:49:40.612Z,997.59
2022-08-30T01:50:40.609Z,997.64
2022-08-30T01:51:40.578Z,997.58
2022-08-30T01:52:40.559Z,997.58
2022-08-30T01:53:40.536Z,997.61
2022-08-30T01:54:40.533Z,997.54
2022-08-30T01:55:40.840Z,997.53
2022-08-30T01:56:40.438Z,997.50
2022-08-30T01:57:40.421Z,997.49
2022-08-30T01:58:40.408Z,997.47
2022-08-30T01:59:40.371Z,997.47
2022-08-30T02:00:40.348Z,997.47
2022-08-30T02:01:40.388Z,997.40
2022-08-30T02:02:40.315Z,997.44
2022-08-30T02:03:40.331Z,997.43
2022-08-30T02:04:40.268Z,997.42
2022-08-30T02:05:40.246Z,997.45
2022-08-30T02:06:40.236Z,997.39
2022-08-30T02:07:40.193Z,997.42
2022-08-30T02:08:40.169Z,997.41
2022-08-30T02:09:40.149Z,997.39
2022-08-30T02:10:40.135Z,997.38
2022-08-30T02:11:40.105Z,997.39
2022-08-30T02:12:40.080Z,997.37
2022-08-30T02:13:40.099Z,997.37
2022-08-30T02:14:40.035Z,997.40
2022-08-30T02:15:41.776Z,997.36
2022-08-30T02:16:40.040Z,997.38
2022-08-30T02:17:40.150Z,997.39
2022-08-30T02:18:39.946Z,997.39
2022-08-30T02:19:39.925Z,997.37
2022-08-30T02:20:39.908Z,997.38
2022-08-30T02:21:39.882Z,997.38
2022-08-30T02:22:39.861Z,997.37
2022-08-30T02:23:39.833Z,997.37
2022-08-30T02:24:39.871Z,997.36
2022-08-30T02:25:39.804Z,997.35
2022-08-30T02:26:39.763Z,997.35
2022-08-30T02:27:39.756Z,997.31
2022-08-30T02:28:49.575Z,997.33
2022-08-30T02:29:39.702Z,997.28
2022-08-30T02:30:39.716Z,997.29
2022-08-30T02:31:39.662Z,997.34
2022-08-30T02:32:39.644Z,997.33
2022-08-30T02:33:40.435Z,997.37
2022-08-30T02:34:39.602Z,997.38
2022-08-30T02:35:39.568Z,997.43
2022-08-30T02:36:39.552Z,997.42
2022-08-30T02:37:39.519Z,997.43
2022-08-30T02:38:39.493Z,997.45
2022-08-30T02:39:39.477Z,997.42
2022-08-30T02:40:39.627Z,997.44
2022-08-30T02:41:39.429Z,997.36
2022-08-30T02:42:39.402Z,997.38
2022-08-30T02:43:39.385Z,997.35
2022-08-30T02:44:39.357Z,997.35
2022-08-30T02:45:39.420Z,997.34
2022-08-30T02:46:39.326Z,997.33
2022-08-30T02:47:41.638Z,997.33
2022-08-30T02:48:39.270Z,997.37
2022-08-30T02:49:39.271Z,997.34
2022-08-30T02:50:39.224Z,997.32
2022-08-30T02:51:39.205Z,997.29
2022-08-30T02:52:39.186Z,997.30
2022-08-30T02:53:39.174Z,997.27
2022-08-30T02:54:39.148Z,997.27
2022-08-30T02:55:39.133Z,997.28
2022-08-30T02:56:39.095Z,997.29
2022-08-30T02:57:39.092Z,997.28
2022-08-30T02:58:39.052Z,997.28
2022-08-30T02:59:39.043Z,997.27
2022-08-30T03:00:39.020Z,997.26
2022-08-30T03:01:39.017Z,997.23
2022-08-30T03:02:38.979Z,997.20
2022-08-30T03:03:39.023Z,997.27
2022-08-30T03:04:38.913Z,997.25
2022-08-30T03:05:39.876Z,997.18
2022-08-30T03:06:38.891Z,997.23
2022-08-30T03:07:38.859Z,997.23
2022-08-30T03:08:38.830Z,997.25
2022-08-30T03:09:38.807Z,997.25
2022-08-30T03:10:38.813Z,997.23
2022-08-30T03:11:38.786Z,997.24
2022-08-30T03:12:38.764Z,997.21
2022-08-30T03:13:38.715Z,997.21
2022-08-30T03:14:38.709Z,997.20
2022-08-30T03:15:38.661Z,997.24
2022-08-30T03:16:38.692Z,997.26
2022-08-30T03:17:38.622Z,997.21
2022-08-30T03:18:38.600Z,997.22
2022-08-30T03:19:38.570Z,997.21
2022-08-30T03:20:38.545Z,997.21
2022-08-30T03:21:38.536Z,997.23
2022-08-30T03:22:38.507Z,997.17
2022-08-30T03:23:38.486Z,997.21
2022-08-30T03:24:38.462Z,997.20
2022-08-30T03:25:38.439Z,997.20
2022-08-30T03:26:40.345Z,997.24
2022-08-30T03:27:38.388Z,997.28
2022-08-30T03:28:38.390Z,997.27
2022-08-30T03:29:38.347Z,997.25
2022-08-30T03:30:38.346Z,997.29
2022-08-30T03:31:52.539Z,997.25
2022-08-30T03:32:38.279Z,997.22
2022-08-30T03:33:38.249Z,997.20
2022-08-30T03:34:38.228Z,997.17
2022-08-30T03:35:38.214Z,997.12
2022-08-30T03:36:38.194Z,997.13
2022-08-30T03:37:38.166Z,997.13
2022-08-30T03:38:38.142Z,997.09
2022-08-30T03:39:38.128Z,997.11
2022-08-30T03:40:38.135Z,997.08
2022-08-30T03:41:38.072Z,997.10
2022-08-30T03:42:38.082Z,997.09
2022-08-30T03:43:38.029Z,997.06
2022-08-30T03:44:38.005Z,997.10
2022-08-30T03:45:38.084Z,997.11
2022-08-30T03:46:37.959Z,997.12
2022-08-30T03:47:37.942Z,997.16
2022-08-30T03:48:37.909Z,997.12
2022-08-30T03:49:37.890Z,997.11
2022-08-30T03:50:37.872Z,997.13
2022-08-30T03:51:37.849Z,997.13
2022-08-30T03:52:37.823Z,997.13
2022-08-30T03:53:37.798Z,997.15
2022-08-30T03:54:37.908Z,997.15
2022-08-30T03:55:37.747Z,997.15
2022-08-30T03:56:37.750Z,997.14
2022-08-30T03:57:37.701Z,997.17
2022-08-30T03:58:37.688Z,997.16
2022-08-30T03:59:37.663Z,997.16
2022-08-30T04:00:37.749Z,997.18
2022-08-30T04:01:37.644Z,997.19
2022-08-30T04:02:37.741Z,997.18
2022-08-30T04:03:37.587Z,997.21
2022-08-30T04:04:37.544Z,997.25
2022-08-30T04:05:37.525Z,997.26
2022-08-30T04:06:37.525Z,997.29
2022-08-30T04:07:37.478Z,997.31
2022-08-30T04:08:37.452Z,997.27
2022-08-30T04:09:37.453Z,997.26
2022-08-30T04:10:37.414Z,997.28
2022-08-30T04:11:37.381Z,997.28
2022-08-30T04:12:38.675Z,997.25
2022-08-30T04:13:37.341Z,997.22
2022-08-30T04:14:37.346Z,997.23
2022-08-30T04:15:37.297Z,997.19
2022-08-30T04:16:37.395Z,997.21
2022-08-30T04:17:37.287Z,997.20
2022-08-30T04:18:37.498Z,997.21
2022-08-30T04:19:37.206Z,997.22
2022-08-30T04:20:37.200Z,997.24
2022-08-30T04:21:42.773Z,997.22
2022-08-30T04:22:37.140Z,997.19
2022-08-30T04:23:37.129Z,997.21
2022-08-30T04:24:37.102Z,997.18
2022-08-30T04:25:37.078Z,997.17
2022-08-30T04:26:37.040Z,997.22
2022-08-30T04:27:37.024Z,997.22
2022-08-30T04:28:36.997Z,997.26
2022-08-30T04:29:36.986Z,997.26
2022-08-30T04:30:36.983Z,997.29
2022-08-30T04:31:36.980Z,997.32
2022-08-30T04:32:36.904Z,997.34
2022-08-30T04:33:36.906Z,997.38
2022-08-30T04:34:36.913Z,997.41
2022-08-30T04:35:36.838Z,997.38
2022-08-30T04:36:36.845Z,997.40
2022-08-30T04:37:36.823Z,997.38
2022-08-30T04:38:36.778Z,997.37
2022-08-30T04:39:36.753Z,997.37
2022-08-30T04:40:36.810Z,997.36
2022-08-30T04:41:36.745Z,997.38
2022-08-30T04:42:36.743Z,997.33
2022-08-30T04:43:36.667Z,997.37
2022-08-30T04:44:36.674Z,997.37
2022-08-30T04:45:36.644Z,997.34
2022-08-30T04:46:36.595Z,997.34
2022-08-30T04:47:36.610Z,997.39
2022-08-30T04:48:36.535Z,997.42
2022-08-30T04:49:36.530Z,997.40
2022-08-30T04:50:36.500Z,997.41
2022-08-30T04:51:36.469Z,997.43
2022-08-30T04:52:36.454Z,997.46
2022-08-30T04:53:36.429Z,997.42
2022-08-30T04:54:36.438Z,997.41
2022-08-30T04:55:36.471Z,997.40
2022-08-30T04:56:36.355Z,997.42
2022-08-30T04:57:36.359Z,997.40
2022-08-30T04:58:36.314Z,997.44
2022-08-30T04:59:36.292Z,997.42
2022-08-30T05:00:36.331Z,997.47
2022-08-30T05:01:45.508Z,997.44
2022-08-30T05:02:36.292Z,997.44
2022-08-30T05:03:36.197Z,997.45
2022-08-30T05:04:36.177Z,997.47
2022-08-30T05:05:36.189Z,997.48
2022-08-30T05:06:36.150Z,997.43
2022-08-30T05:07:36.106Z,997.47
2022-08-30T05:08:36.085Z,997.40
2022-08-30T05:09:36.079Z,997.39
2022-08-30T05:10:36.046Z,997.39
2022-08-30T05:11:36.028Z,997.39
2022-08-30T05:12:35.989Z,997.38
2022-08-30T05:13:36.953Z,997.37
2022-08-30T05:14:35.943Z,997.42
2022-08-30T05:15:35.927Z,997.43
2022-08-30T05:16:35.942Z,997.44
2022-08-30T05:17:35.888Z,997.53
2022-08-30T05:18:35.858Z,997.54
2022-08-30T05:19:35.840Z,997.52
2022-08-30T05:20:35.811Z,997.57
2022-08-30T05:21:35.789Z,997.60
2022-08-30T05:22:35.785Z,997.60
2022-08-30T05:23:35.748Z,997.60
2022-08-30T05:24:35.714Z,997.60
2022-08-30T05:25:35.724Z,997.60
2022-08-30T05:26:35.745Z,997.63
2022-08-30T05:27:35.699Z,997.61
2022-08-30T05:28:35.641Z,997.65
2022-08-30T05:29:35.598Z,997.64
2022-08-30T05:30:35.595Z,997.66
2022-08-30T05:31:35.714Z,997.67
2022-08-30T05:32:35.535Z,997.66
2022-08-30T05:33:38.924Z,997.65
2022-08-30T05:34:35.524Z,997.63
2022-08-30T05:35:35.462Z,997.63
2022-08-30T05:36:35.444Z,997.60
2022-08-30T05:37:35.418Z,997.59
2022-08-30T05:38:35.414Z,997.60
2022-08-30T05:39:51.489Z,997.58
2022-08-30T05:40:35.427Z,997.63
2022-08-30T05:41:35.351Z,997.61
2022-08-30T05:42:35.344Z,997.62
2022-08-30T05:43:35.284Z,997.66
2022-08-30T05:44:35.266Z,997.69
2022-08-30T05:45:35.245Z,997.68
2022-08-30T05:47:35.199Z,997.68
2022-08-30T05:48:35.181Z,997.69
2022-08-30T05:49:35.157Z,997.71
2022-08-30T05:50:39.434Z,997.73
2022-08-30T05:51:35.108Z,997.72
2022-08-30T05:52:35.122Z,997.71
2022-08-30T05:53:35.093Z,997.70
2022-08-30T05:54:35.062Z,997.69
2022-08-30T05:55:35.021Z,997.68
2022-08-30T05:56:35.018Z,997.69
2022-08-30T05:57:34.992Z,997.69
2022-08-30T05:58:34.979Z,997.69
2022-08-30T05:59:34.929Z,997.71
2022-08-30T06:00:34.908Z,997.75
2022-08-30T06:01:34.922Z,997.76
2022-08-30T06:02:34.918Z,997.79
2022-08-30T06:03:34.846Z,997.81
2022-08-30T06:04:34.857Z,997.80
2022-08-30T06:05:34.851Z,997.82
2022-08-30T06:06:34.783Z,997.86
2022-08-30T06:07:34.778Z,997.87
2022-08-30T06:08:34.732Z,997.88
2022-08-30T06:09:34.722Z,997.90
2022-08-30T06:10:34.720Z,997.92
2022-08-30T06:11:34.664Z,997.89
2022-08-30T06:12:34.662Z,997.92
2022-08-30T06:13:34.618Z,997.91
2022-08-30T06:14:34.609Z,997.93
2022-08-30T06:15:34.573Z,997.89
2022-08-30T06:16:34.640Z,997.87
2022-08-30T06:17:34.538Z,997.84
2022-08-30T06:18:34.521Z,997.85
2022-08-30T06:19:34.505Z,997.84
2022-08-30T06:20:34.478Z,997.82
2022-08-30T06:21:34.460Z,997.82
2022-08-30T06:22:34.451Z,997.84
2022-08-30T06:23:34.398Z,997.82
2022-08-30T06:24:55.976Z,997.86
2022-08-30T06:25:42.006Z,997.86
2022-08-30T06:26:34.409Z,997.85
2022-08-30T06:27:34.330Z,997.88
2022-08-30T06:28:34.302Z,997.91
2022-08-30T06:29:34.304Z,997.84
2022-08-30T06:30:34.263Z,997.92
2022-08-30T06:31:34.276Z,997.89
2022-08-30T06:32:34.221Z,997.92
2022-08-30T06:33:34.227Z,997.88
2022-08-30T06:34:34.192Z,997.88
2022-08-30T06:35:38.205Z,997.88
2022-08-30T06:36:34.144Z,997.86
2022-08-30T06:37:34.125Z,997.87
2022-08-30T06:38:34.105Z,997.86
2022-08-30T06:39:34.087Z,997.87
2022-08-30T06:40:34.085Z,997.88
2022-08-30T06:41:34.023Z,997.90
2022-08-30T06:42:34.014Z,997.87
2022-08-30T06:43:33.990Z,997.86
2022-08-30T06:44:33.966Z,997.84
2022-08-30T06:45:33.954Z,997.86
2022-08-30T06:46:34.104Z,997.86
2022-08-30T06:47:33.927Z,997.80
2022-08-30T06:48:33.901Z,997.80
2022-08-30T06:49:33.871Z,997.83
2022-08-30T06:50:33.852Z,997.82
2022-08-30T06:51:34.398Z,997.84
2022-08-30T06:52:33.866Z,997.81
2022-08-30T06:53:33.784Z,997.85
2022-08-30T06:54:33.792Z,997.84
2022-08-30T06:55:33.772Z,997.85
2022-08-30T06:56:33.759Z,997.81
2022-08-30T06:57:33.708Z,997.84
2022-08-30T06:58:33.733Z,997.79
2022-08-30T06:59:33.721Z,997.82
2022-08-30T07:00:33.696Z,997.83
2022-08-30T07:01:33.755Z,997.86
2022-08-30T07:02:33.664Z,997.87
2022-08-30T07:03:33.629Z,997.88
2022-08-30T07:04:33.578Z,997.91
2022-08-30T07:05:33.569Z,997.91
2022-08-30T07:06:33.541Z,997.95
2022-08-30T07:07:33.516Z,997.97
2022-08-30T07:08:33.497Z,998.00
2022-08-30T07:09:33.493Z,998.00
2022-08-30T07:10:33.468Z,998.01
2022-08-30T07:11:33.459Z,998.01
2022-08-30T07:12:33.436Z,998.00
2022-08-30T07:13:33.428Z,998.03
2022-08-30T07:14:33.409Z,998.05
2022-08-30T07:15:33.996Z,998.05
2022-08-30T07:16:33.343Z,998.04
2022-08-30T07:17:34.872Z,998.05
2022-08-30T07:18:33.360Z,998.03
2022-08-30T07:19:33.326Z,998.05
2022-08-30T07:20:39.933Z,998.07
2022-08-30T07:21:33.266Z,998.07
2022-08-30T07:22:33.263Z,998.05
2022-08-30T07:23:33.280Z,998.03
2022-08-30T07:24:33.252Z,998.02
2022-08-30T07:25:33.229Z,998.00
2022-08-30T07:26:33.168Z,997.97
2022-08-30T07:27:33.175Z,998.03
2022-08-30T07:28:33.173Z,998.00
2022-08-30T07:29:33.147Z,998.01
2022-08-30T07:30:33.115Z,998.02
2022-08-30T07:31:33.083Z,998.00
2022-08-30T07:32:33.081Z,998.02
2022-08-30T07:33:33.123Z,998.07
2022-08-30T07:34:33.049Z,998.07
2022-08-30T07:35:33.207Z,998.09
2022-08-30T07:36:33.016Z,998.04
2022-08-30T07:37:32.995Z,998.08
2022-08-30T07:38:32.987Z,998.11
2022-08-30T07:39:35.718Z,998.14
2022-08-30T07:40:33.017Z,998.15
2022-08-30T07:41:32.951Z,998.11
2022-08-30T07:42:32.981Z,998.12
2022-08-30T07:43:32.931Z,998.14
2022-08-30T07:44:32.985Z,998.16
2022-08-30T07:45:32.907Z,998.17
2022-08-30T07:46:32.903Z,998.16
2022-08-30T07:47:32.867Z,998.19
2022-08-30T07:48:32.876Z,998.15
2022-08-30T07:49:32.822Z,998.22
2022-08-30T07:50:32.828Z,998.21
2022-08-30T07:51:32.821Z,998.22
2022-08-30T07:52:32.842Z,998.21
2022-08-30T07:53:32.749Z,998.21
2022-08-30T07:54:32.734Z,998.20
2022-08-30T07:55:32.725Z,998.23
2022-08-30T07:56:32.724Z,998.23
2022-08-30T07:57:32.695Z,998.24
2022-08-30T07:58:32.706Z,998.21
2022-08-30T07:59:35.635Z,998.17
2022-08-30T08:00:32.646Z,998.20
2022-08-30T08:01:32.720Z,998.19
2022-08-30T08:02:32.664Z,998.18
2022-08-30T08:03:32.650Z,998.20
2022-08-30T08:04:32.609Z,998.19
2022-08-30T08:05:32.587Z,998.18
2022-08-30T08:06:34.729Z,998.18
2022-08-30T08:07:32.570Z,998.21
2022-08-30T08:08:32.568Z,998.21
2022-08-30T08:09:32.583Z,998.20
2022-08-30T08:10:32.561Z,998.21
2022-08-30T08:11:33.841Z,998.18
2022-08-30T08:12:32.523Z,998.24
2022-08-30T08:13:32.718Z,998.23
2022-08-30T08:14:32.464Z,998.23
2022-08-30T08:15:32.502Z,998.26
2022-08-30T08:16:32.433Z,998.25
2022-08-30T08:17:32.425Z,998.29
2022-08-30T08:18:32.407Z,998.25
2022-08-30T08:19:32.399Z,998.25
2022-08-30T08:20:32.392Z,998.26
2022-08-30T08:21:32.375Z,998.23
2022-08-30T08:22:33.462Z,998.24
2022-08-30T08:23:32.343Z,998.25
2022-08-30T08:24:32.357Z,998.25
2022-08-30T08:25:32.328Z,998.24
2022-08-30T08:26:32.316Z,998.27
2022-08-30T08:27:32.307Z,998.25
2022-08-30T08:28:32.297Z,998.29
2022-08-30T08:29:32.296Z,998.28
2022-08-30T08:30:32.296Z,998.33
2022-08-30T08:31:33.790Z,998.26
2022-08-30T08:32:32.272Z,998.30
2022-08-30T08:33:32.258Z,998.34
2022-08-30T08:34:32.289Z,998.31
2022-08-30T08:35:32.214Z,998.32
2022-08-30T08:36:32.206Z,998.29
2022-08-30T08:37:32.190Z,998.32
2022-08-30T08:38:32.190Z,998.29
2022-08-30T08:39:32.177Z,998.28
2022-08-30T08:40:32.186Z,998.24
2022-08-30T08:41:32.151Z,998.25
2022-08-30T08:42:32.142Z,998.24
2022-08-30T08:43:32.133Z,998.26
2022-08-30T08:44:34.642Z,998.27
2022-08-30T08:45:32.108Z,998.30
2022-08-30T08:46:32.129Z,998.23
2022-08-30T08:47:32.089Z,998.22
2022-08-30T08:48:45.542Z,998.23
2022-08-30T08:49:32.070Z,998.24
2022-08-30T08:50:32.067Z,998.23
2022-08-30T08:51:32.062Z,998.26
2022-08-30T08:52:32.041Z,998.23
2022-08-30T08:53:46.322Z,998.22
2022-08-30T08:54:32.038Z,998.22
2022-08-30T08:55:32.007Z,998.23
2022-08-30T08:56:31.999Z,998.21
2022-08-30T08:57:31.988Z,998.24
2022-08-30T08:58:31.989Z,998.23
2022-08-30T08:59:31.971Z,998.26
2022-08-30T09:00:31.965Z,998.25
2022-08-30T09:01:31.996Z,998.24
2022-08-30T09:02:34.121Z,998.22
2022-08-30T09:03:31.940Z,998.24
2022-08-30T09:04:31.981Z,998.22
2022-08-30T09:05:31.926Z,998.22
2022-08-30T09:06:31.906Z,998.18
2022-08-30T09:07:31.892Z,998.20
2022-08-30T09:08:31.893Z,998.17
2022-08-30T09:09:31.883Z,998.19
2022-08-30T09:10:49.275Z,998.19
2022-08-30T09:11:31.861Z,998.20
2022-08-30T09:12:31.877Z,998.21
2022-08-30T09:13:31.849Z,998.19
2022-08-30T09:14:31.829Z,998.21
2022-08-30T09:15:31.869Z,998.24
2022-08-30T09:16:31.879Z,998.22
2022-08-30T09:17:31.799Z,998.21
2022-08-30T09:18:31.793Z,998.23
2022-08-30T09:19:34.675Z,998.23
2022-08-30T09:20:31.773Z,998.27
2022-08-30T09:21:31.770Z,998.24
2022-08-30T09:22:31.780Z,998.21
2022-08-30T09:23:31.748Z,998.22
2022-08-30T09:24:31.744Z,998.21
2022-08-30T09:25:31.727Z,998.22
2022-08-30T09:26:31.718Z,998.21
2022-08-30T09:27:31.711Z,998.25
2022-08-30T09:28:31.729Z,998.22
2022-08-30T09:29:31.693Z,998.22
2022-08-30T09:30:31.682Z,998.19
2022-08-30T09:31:31.749Z,998.20
2022-08-30T09:32:31.664Z,998.17
2022-08-30T09:33:31.688Z,998.16
2022-08-30T09:34:31.648Z,998.12
2022-08-30T09:35:31.650Z,998.11
2022-08-30T09:36:31.631Z,998.12
2022-08-30T09:37:31.623Z,998.13
2022-08-30T09:38:31.613Z,998.10
2022-08-30T09:39:31.611Z,998.03
2022-08-30T09:40:31.720Z,998.08
2022-08-30T09:41:31.588Z,998.07
2022-08-30T09:42:31.577Z,998.03
2022-08-30T09:43:31.568Z,998.02
2022-08-30T09:44:31.574Z,998.05
2022-08-30T09:45:31.561Z,998.04
2022-08-30T09:46:31.566Z,998.03
2022-08-30T09:47:31.814Z,998.03
2022-08-30T09:48:31.519Z,998.04
2022-08-30T09:49:31.526Z,997.98
2022-08-30T09:50:31.510Z,997.94
2022-08-30T09:51:31.503Z,998.00
2022-08-30T09:52:31.492Z,997.99
2022-08-30T09:53:31.479Z,997.96
2022-08-30T09:54:31.482Z,997.95
2022-08-30T09:55:31.467Z,997.94
2022-08-30T09:56:31.458Z,997.93
2022-08-30T09:57:34.064Z,997.91
2022-08-30T09:58:31.470Z,997.89
2022-08-30T09:59:31.434Z,997.90
2022-08-30T10:00:31.422Z,997.86
2022-08-30T10:01:31.446Z,997.90
2022-08-30T10:02:31.404Z,997.90
2022-08-30T10:04:31.472Z,997.89
2022-08-30T10:05:31.388Z,997.87
2022-08-30T10:06:31.370Z,997.84
2022-08-30T10:07:31.374Z,997.88
2022-08-30T10:08:31.355Z,997.89
2022-08-30T10:09:31.347Z,997.92
2022-08-30T10:10:31.342Z,997.88
2022-08-30T10:11:31.334Z,997.85
2022-08-30T10:12:31.330Z,997.82
2022-08-30T10:13:33.596Z,997.87
2022-08-30T10:14:31.306Z,997.83
2022-08-30T10:15:31.317Z,997.79
2022-08-30T10:16:31.303Z,997.82
2022-08-30T10:17:31.288Z,997.79
2022-08-30T10:18:31.278Z,997.76
2022-08-30T10:19:31.281Z,997.79
2022-08-30T10:20:31.263Z,997.71
2022-08-30T10:21:31.259Z,997.73
2022-08-30T10:22:31.267Z,997.72
2022-08-30T10:23:31.234Z,997.73
2022-08-30T10:24:33.523Z,997.71
2022-08-30T10:25:31.234Z,997.73
2022-08-30T10:26:31.245Z,997.70
2022-08-30T10:27:31.214Z,997.66
2022-08-30T10:28:31.218Z,997.69
2022-08-30T10:29:31.202Z,997.69
2022-08-30T10:30:31.204Z,997.65
2022-08-30T10:31:31.187Z,997.67
2022-08-30T10:32:31.169Z,997.63
2022-08-30T10:33:31.708Z,997.66
2022-08-30T10:34:31.159Z,997.70
2022-08-30T10:35:38.291Z,997.64
2022-08-30T10:36:31.148Z,997.63
2022-08-30T10:37:31.150Z,997.64
2022-08-30T10:38:31.127Z,997.64
2022-08-30T10:39:31.126Z,997.65
2022-08-30T10:40:31.157Z,997.61
2022-08-30T10:41:31.329Z,997.60
2022-08-30T10:42:31.105Z,997.64
2022-08-30T10:43:31.102Z,997.63
2022-08-30T10:44:31.096Z,997.62
2022-08-30T10:45:31.087Z,997.60
2022-08-30T10:46:31.078Z,997.65
2022-08-30T10:47:31.083Z,997.65
2022-08-30T10:48:31.087Z,997.55
2022-08-30T10:49:31.067Z,997.58
2022-08-30T10:50:31.842Z,997.60
2022-08-30T10:51:31.057Z,997.63
2022-08-30T10:52:31.062Z,997.61
2022-08-30T10:53:31.038Z,997.61
2022-08-30T10:54:31.035Z,997.54
2022-08-30T10:55:31.023Z,997.60
2022-08-30T10:56:31.058Z,997.55
2022-08-30T10:57:31.014Z,997.58
2022-08-30T10:58:31.011Z,997.53
2022-08-30T10:59:31.011Z,997.58
2022-08-30T11:00:31.017Z,997.58
2022-08-30T11:01:31.058Z,997.57
2022-08-30T11:02:30.987Z,997.54
2022-08-30T11:03:30.993Z,997.56
2022-08-30T11:04:30.972Z,997.53
2022-08-30T11:05:30.971Z,997.53
2022-08-30T11:06:30.976Z,997.53
2022-08-30T11:07:30.958Z,997.52
2022-08-30T11:08:30.984Z,997.52
2022-08-30T11:09:30.949Z,997.53
2022-08-30T11:10:30.942Z,997.54
2022-08-30T11:11:30.953Z,997.51
2022-08-30T11:12:30.938Z,997.47
2022-08-30T11:13:30.934Z,997.49
2022-08-30T11:14:30.937Z,997.46
2022-08-30T11:15:30.933Z,997.46
2022-08-30T11:16:30.921Z,997.45
2022-08-30T11:17:30.919Z,997.48
2022-08-30T11:18:30.912Z,997.44
2022-08-30T11:19:32.316Z,997.40
2022-08-30T11:20:30.908Z,997.42
2022-08-30T11:21:30.904Z,997.41
2022-08-30T11:22:32.472Z,997.46
2022-08-30T11:23:32.702Z,997.48
2022-08-30T11:24:30.898Z,997.36
2022-08-30T11:25:30.891Z,997.45
2022-08-30T11:26:30.908Z,997.47
2022-08-30T11:27:30.883Z,997.45
2022-08-30T11:28:30.882Z,997.42
2022-08-30T11:29:30.936Z,997.46
2022-08-30T11:30:30.873Z,997.44
2022-08-30T11:31:30.867Z,997.45
2022-08-30T11:32:30.878Z,997.41
2022-08-30T11:33:30.877Z,997.45
2022-08-30T11:34:30.866Z,997.41
2022-08-30T11:35:30.865Z,997.42
2022-08-30T11:36:37.766Z,997.43
2022-08-30T11:37:30.860Z,997.42
2022-08-30T11:38:30.864Z,997.41
2022-08-30T11:39:30.852Z,997.40
2022-08-30T11:40:30.851Z,997.38
2022-08-30T11:41:30.845Z,997.36
2022-08-30T11:42:30.848Z,997.36
2022-08-30T11:43:30.842Z,997.38
2022-08-30T11:44:30.844Z,997.38
2022-08-30T11:45:30.894Z,997.36
2022-08-30T11:46:30.893Z,997.36
2022-08-30T11:47:30.846Z,997.34
2022-08-30T11:48:30.830Z,997.33
2022-08-30T11:49:30.829Z,997.33
2022-08-30T11:50:30.838Z,997.37
2022-08-30T11:51:30.828Z,997.37
2022-08-30T11:52:30.831Z,997.34
2022-08-30T11:53:30.820Z,997.30
2022-08-30T11:54:30.867Z,997.32
2022-08-30T11:55:30.819Z,997.30
2022-08-30T11:56:30.813Z,997.30
2022-08-30T11:57:30.833Z,997.28
2022-08-30T11:58:30.814Z,997.29
2022-08-30T11:59:30.812Z,997.30
2022-08-30T12:00:31.546Z,997.33
2022-08-30T12:01:51.836Z,997.29
2022-08-30T12:02:30.927Z,997.30
2022-08-30T12:03:30.980Z,997.24
2022-08-30T12:04:30.810Z,997.24
2022-08-30T12:05:30.800Z,997.27
2022-08-30T12:06:30.796Z,997.23
2022-08-30T12:07:30.801Z,997.24
2022-08-30T12:08:30.794Z,997.20
2022-08-30T12:09:30.798Z,997.18
2022-08-30T12:10:30.797Z,997.17
2022-08-30T12:11:30.790Z,997.15
2022-08-30T12:12:30.787Z,997.16
2022-08-30T12:13:30.792Z,997.13
2022-08-30T12:14:30.787Z,997.24
2022-08-30T12:15:30.797Z,997.21
2022-08-30T12:16:30.815Z,997.23
2022-08-30T12:17:30.791Z,997.16
2022-08-30T12:18:30.817Z,997.16
2022-08-30T12:19:30.779Z,997.15
2022-08-30T12:20:30.818Z,997.16
2022-08-30T12:21:31.300Z,997.13
2022-08-30T12:22:30.791Z,997.14
2022-08-30T12:23:30.800Z,997.19
2022-08-30T12:24:30.777Z,997.18
2022-08-30T12:25:30.786Z,997.18
2022-08-30T12:26:30.780Z,997.18
2022-08-30T12:27:32.528Z,997.16
2022-08-30T12:28:30.777Z,997.12
2022-08-30T12:29:30.773Z,997.10
2022-08-30T12:30:30.778Z,997.07